sensor_id;sensor_type;location;lat;lon;timestamp;temperature;humidity
41547;DHT22;27271;45.412;10.852;2022-11-15T00:01:39;5.40;99.90
41547;DHT22;27271;45.412;10.852;2022-11-15T00:05:21;5.50;99.90
41547;DHT22;27271;45.412;10.852;2022-11-15T00:09:03;5.70;99.90
41547;DHT22;27271;45.412;10.852;2022-11-15T00:12:43;6.00;99.90
41547;DHT22;27271;45.412;10.852;2022-11-15T00:16:24;6.00;99.90
41547;DHT22;27271;45.412;10.852;2022-11-15T00:20:05;6.10;99.90
41547;DHT22;27271;45.412;10.852;2022-11-15T00:23:46;6.30;99.90
41547;DHT22;27271;45.412;10.852;2022-11-15T00:27:27;6.50;99.90
41547;DHT22;27271;45.412;10.852;2022-11-15T00:31:12;6.60;99.90
41547;DHT22;27271;45.412;10.852;2022-11-15T00:34:53;6.80;99.90
41547;DHT22;27271;45.412;10.852;2022-11-15T00:38:35;6.80;99.90
41547;DHT22;27271;45.412;10.852;2022-11-15T00:42:18;7.00;99.90
41547;DHT22;27271;45.412;10.852;2022-11-15T00:45:59;7.10;99.90
41547;DHT22;27271;45.412;10.852;2022-11-15T00:49:40;7.10;99.90
41547;DHT22;27271;45.412;10.852;2022-11-15T00:53:22;7.00;99.90
41547;DHT22;27271;45.412;10.852;2022-11-15T00:57:02;7.00;99.90
41547;DHT22;27271;45.412;10.852;2022-11-15T01:00:43;7.00;99.90
41547;DHT22;27271;45.412;10.852;2022-11-15T01:04:24;6.90;99.90
41547;DHT22;27271;45.412;10.852;2022-11-15T01:08:04;6.90;99.90
41547;DHT22;27271;45.412;10.852;2022-11-15T01:11:45;6.90;99.90
41547;DHT22;27271;45.412;10.852;2022-11-15T01:15:26;7.00;99.90
41547;DHT22;27271;45.412;10.852;2022-11-15T01:19:07;7.00;99.90
41547;DHT22;27271;45.412;10.852;2022-11-15T01:22:48;7.00;99.90
41547;DHT22;27271;45.412;10.852;2022-11-15T01:26:31;7.00;99.90
41547;DHT22;27271;45.412;10.852;2022-11-15T01:30:12;6.90;99.90
41547;DHT22;27271;45.412;10.852;2022-11-15T01:33:52;7.00;99.90
41547;DHT22;27271;45.412;10.852;2022-11-15T01:37:33;7.00;99.90
41547;DHT22;27271;45.412;10.852;2022-11-15T01:41:22;7.00;99.90
41547;DHT22;27271;45.412;10.852;2022-11-15T01:45:04;7.00;99.90
41547;DHT22;27271;45.412;10.852;2022-11-15T01:48:53;6.90;99.90
41547;DHT22;27271;45.412;10.852;2022-11-15T01:52:35;6.90;99.90
41547;DHT22;27271;45.412;10.852;2022-11-15T01:56:22;6.80;99.90
41547;DHT22;27271;45.412;10.852;2022-11-15T02:00:05;6.90;99.90
41547;DHT22;27271;45.412;10.852;2022-11-15T02:03:54;6.90;99.90
41547;DHT22;27271;45.412;10.852;2022-11-15T02:07:37;6.80;99.90
41547;DHT22;27271;45.412;10.852;2022-11-15T02:11:21;6.80;99.90
41547;DHT22;27271;45.412;10.852;2022-11-15T02:15:03;6.80;99.90
41547;DHT22;27271;45.412;10.852;2022-11-15T02:18:50;6.60;99.90
41547;DHT22;27271;45.412;10.852;2022-11-15T02:30:38;6.50;99.90
41547;DHT22;27271;45.412;10.852;2022-11-15T02:34:28;6.40;99.90
41547;DHT22;27271;45.412;10.852;2022-11-15T02:42:28;6.40;99.90
41547;DHT22;27271;45.412;10.852;2022-11-15T02:46:36;6.40;99.90
41547;DHT22;27271;45.412;10.852;2022-11-15T02:50:36;6.50;99.90
41547;DHT22;27271;45.412;10.852;2022-11-15T02:54:21;6.40;99.90
41547;DHT22;27271;45.412;10.852;2022-11-15T02:58:36;6.40;99.90
41547;DHT22;27271;45.412;10.852;2022-11-15T03:02:57;6.40;99.90
41547;DHT22;27271;45.412;10.852;2022-11-15T03:07:02;6.40;99.90
41547;DHT22;27271;45.412;10.852;2022-11-15T03:11:09;6.70;99.90
41547;DHT22;27271;45.412;10.852;2022-11-15T03:15:21;6.70;99.90
41547;DHT22;27271;45.412;10.852;2022-11-15T03:19:12;6.60;99.90
41547;DHT22;27271;45.412;10.852;2022-11-15T03:22:58;6.50;99.90
41547;DHT22;27271;45.412;10.852;2022-11-15T03:26:56;6.50;99.90
41547;DHT22;27271;45.412;10.852;2022-11-15T03:30:44;6.70;99.90
41547;DHT22;27271;45.412;10.852;2022-11-15T03:34:52;6.60;99.90
41547;DHT22;27271;45.412;10.852;2022-11-15T03:38:38;6.60;99.90
41547;DHT22;27271;45.412;10.852;2022-11-15T03:42:38;6.60;99.90
41547;DHT22;27271;45.412;10.852;2022-11-15T03:46:28;6.60;99.90
41547;DHT22;27271;45.412;10.852;2022-11-15T03:50:16;6.60;99.90
41547;DHT22;27271;45.412;10.852;2022-11-15T03:53:58;6.60;99.90
41547;DHT22;27271;45.412;10.852;2022-11-15T03:57:42;6.50;99.90
41547;DHT22;27271;45.412;10.852;2022-11-15T04:01:22;6.30;99.90
41547;DHT22;27271;45.412;10.852;2022-11-15T04:05:04;6.30;99.90
41547;DHT22;27271;45.412;10.852;2022-11-15T04:08:45;6.10;99.90
41547;DHT22;27271;45.412;10.852;2022-11-15T04:12:25;6.10;99.90
41547;DHT22;27271;45.412;10.852;2022-11-15T04:16:12;5.90;99.90
41547;DHT22;27271;45.412;10.852;2022-11-15T04:19:53;5.80;99.90
41547;DHT22;27271;45.412;10.852;2022-11-15T04:23:52;5.80;99.90
41547;DHT22;27271;45.412;10.852;2022-11-15T04:27:44;5.60;99.90
41547;DHT22;27271;45.412;10.852;2022-11-15T04:31:25;5.60;99.90
41547;DHT22;27271;45.412;10.852;2022-11-15T04:35:06;5.60;99.90
41547;DHT22;27271;45.412;10.852;2022-11-15T04:38:47;5.70;99.90
41547;DHT22;27271;45.412;10.852;2022-11-15T04:42:28;5.70;99.90
41547;DHT22;27271;45.412;10.852;2022-11-15T04:46:08;5.60;99.90
41547;DHT22;27271;45.412;10.852;2022-11-15T04:49:49;5.40;99.90
41547;DHT22;27271;45.412;10.852;2022-11-15T04:53:29;5.40;99.90
41547;DHT22;27271;45.412;10.852;2022-11-15T04:57:11;5.30;99.90
41547;DHT22;27271;45.412;10.852;2022-11-15T05:00:54;5.20;99.90
41547;DHT22;27271;45.412;10.852;2022-11-15T05:04:35;5.20;99.90
41547;DHT22;27271;45.412;10.852;2022-11-15T05:08:16;5.10;99.90
41547;DHT22;27271;45.412;10.852;2022-11-15T05:11:57;5.10;99.90
41547;DHT22;27271;45.412;10.852;2022-11-15T05:15:37;5.20;99.90
41547;DHT22;27271;45.412;10.852;2022-11-15T05:19:18;5.20;99.90
41547;DHT22;27271;45.412;10.852;2022-11-15T05:22:58;5.20;99.90
41547;DHT22;27271;45.412;10.852;2022-11-15T05:26:39;5.10;99.90
41547;DHT22;27271;45.412;10.852;2022-11-15T05:30:19;5.00;99.90
41547;DHT22;27271;45.412;10.852;2022-11-15T05:34:05;5.00;99.90
41547;DHT22;27271;45.412;10.852;2022-11-15T05:37:46;5.00;99.90
41547;DHT22;27271;45.412;10.852;2022-11-15T05:41:41;5.00;99.90
41547;DHT22;27271;45.412;10.852;2022-11-15T05:45:23;4.90;99.90
41547;DHT22;27271;45.412;10.852;2022-11-15T05:49:09;5.10;99.90
41547;DHT22;27271;45.412;10.852;2022-11-15T05:52:50;5.20;99.90
41547;DHT22;27271;45.412;10.852;2022-11-15T05:56:31;5.10;99.90
41547;DHT22;27271;45.412;10.852;2022-11-15T06:00:12;5.00;99.90
41547;DHT22;27271;45.412;10.852;2022-11-15T06:03:53;4.90;99.90
41547;DHT22;27271;45.412;10.852;2022-11-15T06:07:33;4.80;99.90
41547;DHT22;27271;45.412;10.852;2022-11-15T06:11:14;4.80;99.90
41547;DHT22;27271;45.412;10.852;2022-11-15T06:14:54;4.70;99.90
41547;DHT22;27271;45.412;10.852;2022-11-15T06:18:35;4.70;99.90
41547;DHT22;27271;45.412;10.852;2022-11-15T06:22:15;4.80;99.90
41547;DHT22;27271;45.412;10.852;2022-11-15T06:25:58;4.90;99.90
41547;DHT22;27271;45.412;10.852;2022-11-15T06:29:38;5.00;99.90
41547;DHT22;27271;45.412;10.852;2022-11-15T06:33:19;5.10;99.90
41547;DHT22;27271;45.412;10.852;2022-11-15T06:37:00;5.20;99.90
41547;DHT22;27271;45.412;10.852;2022-11-15T06:40:40;5.30;99.90
41547;DHT22;27271;45.412;10.852;2022-11-15T06:44:24;5.40;99.90
41547;DHT22;27271;45.412;10.852;2022-11-15T06:48:05;5.40;99.90
41547;DHT22;27271;45.412;10.852;2022-11-15T06:51:45;5.50;99.90
41547;DHT22;27271;45.412;10.852;2022-11-15T06:55:26;5.50;99.90
41547;DHT22;27271;45.412;10.852;2022-11-15T06:59:07;5.50;99.90
41547;DHT22;27271;45.412;10.852;2022-11-15T07:02:48;5.60;99.90
41547;DHT22;27271;45.412;10.852;2022-11-15T07:06:29;5.60;99.90
41547;DHT22;27271;45.412;10.852;2022-11-15T07:10:09;5.60;99.90
41547;DHT22;27271;45.412;10.852;2022-11-15T07:13:50;5.70;99.90
41547;DHT22;27271;45.412;10.852;2022-11-15T07:17:31;5.70;99.90
41547;DHT22;27271;45.412;10.852;2022-11-15T07:21:12;5.80;99.90
41547;DHT22;27271;45.412;10.852;2022-11-15T07:24:53;5.80;99.90
41547;DHT22;27271;45.412;10.852;2022-11-15T07:28:33;5.90;99.90
41547;DHT22;27271;45.412;10.852;2022-11-15T07:32:14;5.90;99.90
41547;DHT22;27271;45.412;10.852;2022-11-15T07:35:58;6.00;99.90
41547;DHT22;27271;45.412;10.852;2022-11-15T07:39:38;6.00;99.90
41547;DHT22;27271;45.412;10.852;2022-11-15T07:43:19;6.10;99.90
41547;DHT22;27271;45.412;10.852;2022-11-15T07:47:00;6.30;99.90
41547;DHT22;27271;45.412;10.852;2022-11-15T07:50:42;6.30;99.90
41547;DHT22;27271;45.412;10.852;2022-11-15T07:54:23;6.30;99.90
41547;DHT22;27271;45.412;10.852;2022-11-15T07:58:08;6.30;99.90
41547;DHT22;27271;45.412;10.852;2022-11-15T08:01:49;6.40;99.90
41547;DHT22;27271;45.412;10.852;2022-11-15T08:05:30;6.40;99.90
41547;DHT22;27271;45.412;10.852;2022-11-15T08:09:13;6.40;99.90
41547;DHT22;27271;45.412;10.852;2022-11-15T08:13:00;6.30;99.90
41547;DHT22;27271;45.412;10.852;2022-11-15T08:16:44;6.20;99.90
41547;DHT22;27271;45.412;10.852;2022-11-15T08:20:25;6.20;99.90
41547;DHT22;27271;45.412;10.852;2022-11-15T08:24:09;6.20;99.90
41547;DHT22;27271;45.412;10.852;2022-11-15T08:27:52;6.20;99.90
41547;DHT22;27271;45.412;10.852;2022-11-15T08:31:34;6.30;99.90
41547;DHT22;27271;45.412;10.852;2022-11-15T08:35:19;6.40;99.90
41547;DHT22;27271;45.412;10.852;2022-11-15T08:39:10;6.30;99.90
41547;DHT22;27271;45.412;10.852;2022-11-15T08:42:52;6.50;99.90
41547;DHT22;27271;45.412;10.852;2022-11-15T08:46:34;6.50;99.90
41547;DHT22;27271;45.412;10.852;2022-11-15T08:50:16;6.60;99.90
41547;DHT22;27271;45.412;10.852;2022-11-15T08:53:57;6.80;99.90
41547;DHT22;27271;45.412;10.852;2022-11-15T08:57:40;7.10;99.90
41547;DHT22;27271;45.412;10.852;2022-11-15T09:01:22;7.00;99.90
41547;DHT22;27271;45.412;10.852;2022-11-15T09:05:04;7.20;99.90
41547;DHT22;27271;45.412;10.852;2022-11-15T09:08:45;7.20;99.90
41547;DHT22;27271;45.412;10.852;2022-11-15T09:12:27;7.30;99.90
41547;DHT22;27271;45.412;10.852;2022-11-15T09:16:08;7.50;99.90
41547;DHT22;27271;45.412;10.852;2022-11-15T09:19:49;7.70;99.90
41547;DHT22;27271;45.412;10.852;2022-11-15T09:23:30;7.90;99.90
41547;DHT22;27271;45.412;10.852;2022-11-15T09:27:11;8.10;99.90
41547;DHT22;27271;45.412;10.852;2022-11-15T09:30:58;8.20;99.90
41547;DHT22;27271;45.412;10.852;2022-11-15T09:34:39;8.30;99.90
41547;DHT22;27271;45.412;10.852;2022-11-15T09:38:20;8.30;99.90
41547;DHT22;27271;45.412;10.852;2022-11-15T09:42:04;8.30;99.90
41547;DHT22;27271;45.412;10.852;2022-11-15T09:50:31;8.20;99.90
41547;DHT22;27271;45.412;10.852;2022-11-15T09:57:52;7.90;99.90
41547;DHT22;27271;45.412;10.852;2022-11-15T10:05:25;7.70;99.90
41547;DHT22;27271;45.412;10.852;2022-11-15T10:12:23;7.90;99.90
41547;DHT22;27271;45.412;10.852;2022-11-15T10:15:50;8.00;99.90
41547;DHT22;27271;45.412;10.852;2022-11-15T10:22:58;8.00;99.90
41547;DHT22;27271;45.412;10.852;2022-11-15T10:26:26;8.10;99.90
41547;DHT22;27271;45.412;10.852;2022-11-15T10:29:50;8.10;99.90
41547;DHT22;27271;45.412;10.852;2022-11-15T10:33:33;8.10;99.90
41547;DHT22;27271;45.412;10.852;2022-11-15T10:36:59;8.10;99.90
41547;DHT22;27271;45.412;10.852;2022-11-15T10:40:23;8.10;99.90
41547;DHT22;27271;45.412;10.852;2022-11-15T10:47:38;8.00;99.90
41547;DHT22;27271;45.412;10.852;2022-11-15T10:51:01;8.30;99.90
41547;DHT22;27271;45.412;10.852;2022-11-15T10:54:52;8.30;99.90
41547;DHT22;27271;45.412;10.852;2022-11-15T10:58:32;8.60;99.90
41547;DHT22;27271;45.412;10.852;2022-11-15T11:01:55;8.70;99.90
41547;DHT22;27271;45.412;10.852;2022-11-15T11:09:05;8.60;99.90
41547;DHT22;27271;45.412;10.852;2022-11-15T11:12:29;8.70;99.90
41547;DHT22;27271;45.412;10.852;2022-11-15T11:41:31;8.90;99.90
41547;DHT22;27271;45.412;10.852;2022-11-15T11:45:37;8.90;99.90
41547;DHT22;27271;45.412;10.852;2022-11-15T11:49:49;8.90;99.90
41547;DHT22;27271;45.412;10.852;2022-11-15T11:56:55;9.00;99.90
41547;DHT22;27271;45.412;10.852;2022-11-15T12:00:24;9.10;99.90
41547;DHT22;27271;45.412;10.852;2022-11-15T12:04:13;9.10;99.90
41547;DHT22;27271;45.412;10.852;2022-11-15T12:07:37;9.10;99.90
41547;DHT22;27271;45.412;10.852;2022-11-15T12:11:19;9.20;99.90
41547;DHT22;27271;45.412;10.852;2022-11-15T12:14:54;9.20;99.90
41547;DHT22;27271;45.412;10.852;2022-11-15T12:18:17;9.30;99.90
41547;DHT22;27271;45.412;10.852;2022-11-15T12:25:48;9.20;99.90
41547;DHT22;27271;45.412;10.852;2022-11-15T12:29:19;9.20;99.90
41547;DHT22;27271;45.412;10.852;2022-11-15T12:32:55;9.20;99.90
41547;DHT22;27271;45.412;10.852;2022-11-15T12:43:45;9.10;99.90
41547;DHT22;27271;45.412;10.852;2022-11-15T12:47:25;9.20;99.90
41547;DHT22;27271;45.412;10.852;2022-11-15T12:50:59;9.20;99.90
41547;DHT22;27271;45.412;10.852;2022-11-15T12:58:38;9.20;99.90
41547;DHT22;27271;45.412;10.852;2022-11-15T13:02:41;9.40;99.90
41547;DHT22;27271;45.412;10.852;2022-11-15T13:10:48;9.50;99.90
41547;DHT22;27271;45.412;10.852;2022-11-15T13:14:52;9.60;99.90
41547;DHT22;27271;45.412;10.852;2022-11-15T13:22:20;9.70;99.90
41547;DHT22;27271;45.412;10.852;2022-11-15T13:26:07;9.60;99.90
41547;DHT22;27271;45.412;10.852;2022-11-15T13:29:43;9.60;99.90
41547;DHT22;27271;45.412;10.852;2022-11-15T13:33:38;9.50;99.90
41547;DHT22;27271;45.412;10.852;2022-11-15T13:37:12;9.50;99.90
41547;DHT22;27271;45.412;10.852;2022-11-15T13:40:49;9.40;99.90
41547;DHT22;27271;45.412;10.852;2022-11-15T13:44:27;9.50;99.90
41547;DHT22;27271;45.412;10.852;2022-11-15T13:48:04;9.50;99.90
41547;DHT22;27271;45.412;10.852;2022-11-15T13:51:55;9.70;99.90
41547;DHT22;27271;45.412;10.852;2022-11-15T13:55:27;9.70;99.90
41547;DHT22;27271;45.412;10.852;2022-11-15T13:59:08;9.60;99.90
41547;DHT22;27271;45.412;10.852;2022-11-15T14:02:33;9.60;99.90
41547;DHT22;27271;45.412;10.852;2022-11-15T14:06:13;9.50;99.90
41547;DHT22;27271;45.412;10.852;2022-11-15T14:09:53;9.50;99.90
41547;DHT22;27271;45.412;10.852;2022-11-15T14:13:29;9.50;99.90
41547;DHT22;27271;45.412;10.852;2022-11-15T14:16:55;9.50;99.90
41547;DHT22;27271;45.412;10.852;2022-11-15T14:20:38;9.40;99.90
41547;DHT22;27271;45.412;10.852;2022-11-15T14:24:20;9.50;99.90
41547;DHT22;27271;45.412;10.852;2022-11-15T14:28:47;9.50;99.90
41547;DHT22;27271;45.412;10.852;2022-11-15T14:31:50;9.60;99.90
41547;DHT22;27271;45.412;10.852;2022-11-15T14:35:19;9.60;99.90
41547;DHT22;27271;45.412;10.852;2022-11-15T14:38:42;9.60;99.90
41547;DHT22;27271;45.412;10.852;2022-11-15T14:42:08;9.60;99.90
41547;DHT22;27271;45.412;10.852;2022-11-15T14:45:31;9.60;99.90
41547;DHT22;27271;45.412;10.852;2022-11-15T14:48:53;9.60;99.90
41547;DHT22;27271;45.412;10.852;2022-11-15T14:52:25;9.60;99.90
41547;DHT22;27271;45.412;10.852;2022-11-15T14:55:53;9.60;99.90
41547;DHT22;27271;45.412;10.852;2022-11-15T14:59:15;9.60;99.90
41547;DHT22;27271;45.412;10.852;2022-11-15T15:02:37;9.60;99.90
41547;DHT22;27271;45.412;10.852;2022-11-15T15:06:03;9.60;99.90
41547;DHT22;27271;45.412;10.852;2022-11-15T15:09:28;9.50;99.90
41547;DHT22;27271;45.412;10.852;2022-11-15T15:12:50;9.40;99.90
41547;DHT22;27271;45.412;10.852;2022-11-15T15:16:12;9.40;99.90
41547;DHT22;27271;45.412;10.852;2022-11-15T15:19:35;9.30;99.90
41547;DHT22;27271;45.412;10.852;2022-11-15T15:22:59;9.20;99.90
41547;DHT22;27271;45.412;10.852;2022-11-15T15:26:25;9.10;99.90
41547;DHT22;27271;45.412;10.852;2022-11-15T15:29:48;9.10;99.90
41547;DHT22;27271;45.412;10.852;2022-11-15T15:33:15;9.00;99.90
41547;DHT22;27271;45.412;10.852;2022-11-15T15:36:40;9.00;99.90
41547;DHT22;27271;45.412;10.852;2022-11-15T15:40:14;8.90;99.90
41547;DHT22;27271;45.412;10.852;2022-11-15T15:43:40;8.90;99.90
41547;DHT22;27271;45.412;10.852;2022-11-15T15:47:13;8.90;99.90
41547;DHT22;27271;45.412;10.852;2022-11-15T15:50:37;8.90;99.90
41547;DHT22;27271;45.412;10.852;2022-11-15T15:53:59;8.80;99.90
41547;DHT22;27271;45.412;10.852;2022-11-15T15:57:21;8.80;99.90
41547;DHT22;27271;45.412;10.852;2022-11-15T16:00:44;8.80;99.90
41547;DHT22;27271;45.412;10.852;2022-11-15T16:04:09;8.80;99.90
41547;DHT22;27271;45.412;10.852;2022-11-15T16:07:35;8.80;99.90
41547;DHT22;27271;45.412;10.852;2022-11-15T16:10:58;8.80;99.90
41547;DHT22;27271;45.412;10.852;2022-11-15T16:14:21;8.80;99.90
41547;DHT22;27271;45.412;10.852;2022-11-15T16:18:04;8.80;99.90
41547;DHT22;27271;45.412;10.852;2022-11-15T16:21:31;8.80;99.90
41547;DHT22;27271;45.412;10.852;2022-11-15T16:24:53;8.90;99.90
41547;DHT22;27271;45.412;10.852;2022-11-15T16:28:19;8.80;99.90
41547;DHT22;27271;45.412;10.852;2022-11-15T16:31:49;8.90;99.90
41547;DHT22;27271;45.412;10.852;2022-11-15T16:35:12;8.90;99.90
41547;DHT22;27271;45.412;10.852;2022-11-15T16:38:34;8.90;99.90
41547;DHT22;27271;45.412;10.852;2022-11-15T16:41:59;8.90;99.90
41547;DHT22;27271;45.412;10.852;2022-11-15T16:45:22;8.90;99.90
41547;DHT22;27271;45.412;10.852;2022-11-15T16:48:44;8.90;99.90
41547;DHT22;27271;45.412;10.852;2022-11-15T16:52:07;8.90;99.90
41547;DHT22;27271;45.412;10.852;2022-11-15T16:55:32;8.90;99.90
41547;DHT22;27271;45.412;10.852;2022-11-15T16:58:56;8.90;99.90
41547;DHT22;27271;45.412;10.852;2022-11-15T17:02:21;8.80;99.90
41547;DHT22;27271;45.412;10.852;2022-11-15T17:05:44;8.90;99.90
41547;DHT22;27271;45.412;10.852;2022-11-15T17:09:13;8.80;99.90
41547;DHT22;27271;45.412;10.852;2022-11-15T17:12:36;8.80;99.90
41547;DHT22;27271;45.412;10.852;2022-11-15T17:16:11;8.80;99.90
41547;DHT22;27271;45.412;10.852;2022-11-15T17:19:34;8.80;99.90
41547;DHT22;27271;45.412;10.852;2022-11-15T17:22:57;8.80;99.90
41547;DHT22;27271;45.412;10.852;2022-11-15T17:26:22;8.80;99.90
41547;DHT22;27271;45.412;10.852;2022-11-15T17:29:53;8.80;99.90
41547;DHT22;27271;45.412;10.852;2022-11-15T17:33:15;8.90;99.90
41547;DHT22;27271;45.412;10.852;2022-11-15T17:36:38;8.80;99.90
41547;DHT22;27271;45.412;10.852;2022-11-15T17:40:00;8.80;99.90
41547;DHT22;27271;45.412;10.852;2022-11-15T17:43:23;8.90;99.90
41547;DHT22;27271;45.412;10.852;2022-11-15T17:46:45;8.90;99.90
41547;DHT22;27271;45.412;10.852;2022-11-15T17:50:08;8.90;99.90
41547;DHT22;27271;45.412;10.852;2022-11-15T17:53:37;8.90;99.90
41547;DHT22;27271;45.412;10.852;2022-11-15T17:57:13;8.80;99.90
41547;DHT22;27271;45.412;10.852;2022-11-15T18:00:36;8.90;99.90
41547;DHT22;27271;45.412;10.852;2022-11-15T18:04:04;8.90;99.90
41547;DHT22;27271;45.412;10.852;2022-11-15T18:07:29;8.90;99.90
41547;DHT22;27271;45.412;10.852;2022-11-15T18:11:07;8.80;99.90
41547;DHT22;27271;45.412;10.852;2022-11-15T18:14:31;8.80;99.90
41547;DHT22;27271;45.412;10.852;2022-11-15T18:17:54;8.80;99.90
41547;DHT22;27271;45.412;10.852;2022-11-15T18:21:24;8.80;99.90
41547;DHT22;27271;45.412;10.852;2022-11-15T18:24:46;8.80;99.90
41547;DHT22;27271;45.412;10.852;2022-11-15T18:28:11;8.80;99.90
41547;DHT22;27271;45.412;10.852;2022-11-15T18:31:33;8.80;99.90
41547;DHT22;27271;45.412;10.852;2022-11-15T18:34:56;8.90;99.90
41547;DHT22;27271;45.412;10.852;2022-11-15T18:38:18;8.80;99.90
41547;DHT22;27271;45.412;10.852;2022-11-15T18:41:41;8.90;99.90
41547;DHT22;27271;45.412;10.852;2022-11-15T18:45:03;8.80;99.90
41547;DHT22;27271;45.412;10.852;2022-11-15T18:48:29;8.80;99.90
41547;DHT22;27271;45.412;10.852;2022-11-15T18:51:52;8.80;99.90
41547;DHT22;27271;45.412;10.852;2022-11-15T18:55:14;8.80;99.90
41547;DHT22;27271;45.412;10.852;2022-11-15T18:58:41;8.80;99.90
41547;DHT22;27271;45.412;10.852;2022-11-15T19:02:04;8.70;99.90
41547;DHT22;27271;45.412;10.852;2022-11-15T19:05:29;8.80;99.90
41547;DHT22;27271;45.412;10.852;2022-11-15T19:08:53;8.70;99.90
41547;DHT22;27271;45.412;10.852;2022-11-15T19:12:18;8.80;99.90
41547;DHT22;27271;45.412;10.852;2022-11-15T19:15:40;8.70;99.90
41547;DHT22;27271;45.412;10.852;2022-11-15T19:19:05;8.70;99.90
41547;DHT22;27271;45.412;10.852;2022-11-15T19:22:27;8.80;99.90
41547;DHT22;27271;45.412;10.852;2022-11-15T19:25:58;8.80;99.90
41547;DHT22;27271;45.412;10.852;2022-11-15T19:29:23;8.80;99.90
41547;DHT22;27271;45.412;10.852;2022-11-15T19:32:45;8.80;99.90
41547;DHT22;27271;45.412;10.852;2022-11-15T19:36:16;8.80;99.90
41547;DHT22;27271;45.412;10.852;2022-11-15T19:39:38;8.90;99.90
41547;DHT22;27271;45.412;10.852;2022-11-15T19:43:02;8.90;99.90
41547;DHT22;27271;45.412;10.852;2022-11-15T19:46:25;8.90;99.90
41547;DHT22;27271;45.412;10.852;2022-11-15T19:49:48;8.90;99.90
41547;DHT22;27271;45.412;10.852;2022-11-15T19:53:12;8.90;99.90
41547;DHT22;27271;45.412;10.852;2022-11-15T19:56:36;8.90;99.90
41547;DHT22;27271;45.412;10.852;2022-11-15T19:59:58;9.00;99.90
41547;DHT22;27271;45.412;10.852;2022-11-15T20:03:28;9.00;99.90
41547;DHT22;27271;45.412;10.852;2022-11-15T20:06:51;9.00;99.90
41547;DHT22;27271;45.412;10.852;2022-11-15T20:10:14;9.00;99.90
41547;DHT22;27271;45.412;10.852;2022-11-15T20:13:42;9.00;99.90
41547;DHT22;27271;45.412;10.852;2022-11-15T20:17:04;9.00;99.90
41547;DHT22;27271;45.412;10.852;2022-11-15T20:20:30;8.90;99.90
41547;DHT22;27271;45.412;10.852;2022-11-15T20:23:53;9.00;99.90
41547;DHT22;27271;45.412;10.852;2022-11-15T20:27:16;8.90;99.90
41547;DHT22;27271;45.412;10.852;2022-11-15T20:30:38;8.90;99.90
41547;DHT22;27271;45.412;10.852;2022-11-15T20:34:00;8.90;99.90
41547;DHT22;27271;45.412;10.852;2022-11-15T20:37:23;8.90;99.90
41547;DHT22;27271;45.412;10.852;2022-11-15T20:40:46;9.00;99.90
41547;DHT22;27271;45.412;10.852;2022-11-15T20:44:08;8.90;99.90
41547;DHT22;27271;45.412;10.852;2022-11-15T20:47:31;8.90;99.90
41547;DHT22;27271;45.412;10.852;2022-11-15T20:51:11;8.90;99.90
41547;DHT22;27271;45.412;10.852;2022-11-15T20:54:35;8.90;99.90
41547;DHT22;27271;45.412;10.852;2022-11-15T20:57:57;8.90;99.90
41547;DHT22;27271;45.412;10.852;2022-11-15T21:01:20;8.90;99.90
41547;DHT22;27271;45.412;10.852;2022-11-15T21:04:45;9.00;99.90
41547;DHT22;27271;45.412;10.852;2022-11-15T21:08:08;8.90;99.90
41547;DHT22;27271;45.412;10.852;2022-11-15T21:11:34;9.00;99.90
41547;DHT22;27271;45.412;10.852;2022-11-15T21:15:15;8.90;99.90
41547;DHT22;27271;45.412;10.852;2022-11-15T21:18:40;8.90;99.90
41547;DHT22;27271;45.412;10.852;2022-11-15T21:22:03;8.90;99.90
41547;DHT22;27271;45.412;10.852;2022-11-15T21:25:26;8.90;99.90
41547;DHT22;27271;45.412;10.852;2022-11-15T21:28:48;8.90;99.90
41547;DHT22;27271;45.412;10.852;2022-11-15T21:32:14;9.00;99.90
41547;DHT22;27271;45.412;10.852;2022-11-15T21:35:36;9.00;99.90
41547;DHT22;27271;45.412;10.852;2022-11-15T21:38:58;9.10;99.90
41547;DHT22;27271;45.412;10.852;2022-11-15T21:42:21;9.00;99.90
41547;DHT22;27271;45.412;10.852;2022-11-15T21:45:54;9.00;99.90
41547;DHT22;27271;45.412;10.852;2022-11-15T21:49:16;9.00;99.90
41547;DHT22;27271;45.412;10.852;2022-11-15T21:52:39;9.10;99.90
41547;DHT22;27271;45.412;10.852;2022-11-15T21:56:08;9.10;99.90
41547;DHT22;27271;45.412;10.852;2022-11-15T21:59:33;9.10;99.90
41547;DHT22;27271;45.412;10.852;2022-11-15T22:02:55;9.10;99.90
41547;DHT22;27271;45.412;10.852;2022-11-15T22:06:18;9.10;99.90
41547;DHT22;27271;45.412;10.852;2022-11-15T22:09:40;9.10;99.90
41547;DHT22;27271;45.412;10.852;2022-11-15T22:13:02;9.10;99.90
41547;DHT22;27271;45.412;10.852;2022-11-15T22:16:25;9.10;99.90
41547;DHT22;27271;45.412;10.852;2022-11-15T22:19:47;9.10;99.90
41547;DHT22;27271;45.412;10.852;2022-11-15T22:23:13;9.10;99.90
41547;DHT22;27271;45.412;10.852;2022-11-15T22:26:36;9.10;99.90
41547;DHT22;27271;45.412;10.852;2022-11-15T22:29:58;9.20;99.90
41547;DHT22;27271;45.412;10.852;2022-11-15T22:33:28;9.10;99.90
41547;DHT22;27271;45.412;10.852;2022-11-15T22:36:51;9.10;99.90
41547;DHT22;27271;45.412;10.852;2022-11-15T22:40:35;9.10;99.90
41547;DHT22;27271;45.412;10.852;2022-11-15T22:43:57;9.20;99.90
41547;DHT22;27271;45.412;10.852;2022-11-15T22:47:19;9.10;99.90
41547;DHT22;27271;45.412;10.852;2022-11-15T22:50:43;9.10;99.90
41547;DHT22;27271;45.412;10.852;2022-11-15T22:54:06;9.10;99.90
41547;DHT22;27271;45.412;10.852;2022-11-15T22:57:29;9.10;99.90
41547;DHT22;27271;45.412;10.852;2022-11-15T23:00:53;9.10;99.90
41547;DHT22;27271;45.412;10.852;2022-11-15T23:04:20;9.10;99.90
41547;DHT22;27271;45.412;10.852;2022-11-15T23:07:44;9.00;99.90
41547;DHT22;27271;45.412;10.852;2022-11-15T23:11:09;9.00;99.90
41547;DHT22;27271;45.412;10.852;2022-11-15T23:14:50;9.00;99.90
41547;DHT22;27271;45.412;10.852;2022-11-15T23:18:16;9.00;99.90
41547;DHT22;27271;45.412;10.852;2022-11-15T23:21:41;9.00;99.90
41547;DHT22;27271;45.412;10.852;2022-11-15T23:25:22;9.00;99.90
41547;DHT22;27271;45.412;10.852;2022-11-15T23:28:44;9.00;99.90
41547;DHT22;27271;45.412;10.852;2022-11-15T23:32:07;9.00;99.90
41547;DHT22;27271;45.412;10.852;2022-11-15T23:35:54;9.00;99.90
41547;DHT22;27271;45.412;10.852;2022-11-15T23:39:16;9.00;99.90
41547;DHT22;27271;45.412;10.852;2022-11-15T23:42:39;9.00;99.90
41547;DHT22;27271;45.412;10.852;2022-11-15T23:46:01;9.00;99.90
41547;DHT22;27271;45.412;10.852;2022-11-15T23:49:25;9.00;99.90
41547;DHT22;27271;45.412;10.852;2022-11-15T23:52:47;9.10;99.90
41547;DHT22;27271;45.412;10.852;2022-11-15T23:56:13;9.00;99.90
41547;DHT22;27271;45.412;10.852;2022-11-15T23:59:41;9.00;99.90
